Airfield :
LOGIN :

Register | Disclaimer

   EN    FR    IT 

 










Legend :    VFR   Marginal VFR   IFR   Intensive IFR   Very Intensive IFR
Visi :
Ceiling :
>= 8 km
>= 3000ft
5 to 8 km
1000 to 3000 ft
1500m to 5 km
500 to 1000 ft
800 to 1500m
200 to 500 ft
< 800m
< 200 ft
Symbols :   Thunderstorms  Fog  Heavy snow  Heavy precipitations  Wind > 20 kt
SIGMETs :     Misc.  Thunderstorms  Icing  Turbulence  Mountain Waves  Volcanic Ashes






- Airport Elevation : 235 ft
- IATA code : BZG


EPBY - Bydgoszcz

CURRENT METAR :
  • 032000Z VRB02KT CAVOK 18/12 Q1018

EXPIRED METARs :
  • 031930Z 12002KT CAVOK 20/10 Q1018
  • 031900Z 19002KT CAVOK 21/10 Q1018
  • 031830Z 20003KT CAVOK 23/10 Q1018
  • 030500Z VRB02KT CAVOK 17/13 Q1022
  • 031800Z 19004KT CAVOK 24/09 Q1018
  • 031730Z 20006KT 170V230 CAVOK 24/09 Q1018

TAF TAF EPBY
Valid from the 03 at 18:00 until the 04 at 18:00 UTC


031730Z 0318/0418 16006KT CAVOK
BECMG 0409/0411 28010KT
TEMPO 0410/0417 -SHRA BKN030CB
PROB30
TEMPO 0411/0416 4000 TSRA BKN020CB



MET'MAP, your aeronautical weather chart ! - Copyright ORBIFLY December 2007 - Disclaimer

ORBIFLY MET'MAP TEAM :

Programming & Development : Alexandra Zaïnal
Original concept : Baudouin d'Aumeries
Technical & hardware support : Manuel Goepfert
Assistance : Marc-Olivier Méhu




SOURCES & CREDITS :

   NOAA